MV Moseldijk — PBWK — position and weather

sailwx.info

Track history (hours):
 
Tides and Currents Weather Stations Pressure Air Temp Water Temp Dewpoint Dewpoint Depression Visibility Wind Speed Wind Dir Waves Ship Positions

MV Moseldijk

Last reported at 2015-Mar-02 11:06 UTC. Time now 2015-Mar-04 08:33 UTC.
Position N 39°01' W 009°51'.

Length 90 m; draft 6.4 m.

Type: Cargo ship. MMSI: 246644000.

Date/timePositionNaut miles runAvg speedWind from/ knotsBaromVisibWave heightAir tempDewpointWater temp
2015-Mar-02 11:06N 39°01' W 009°51'1610.1
2015-Mar-02 09:32N 38°45' W 009°51'1010.0
2015-Mar-02 08:33N 38°36' W 009°48'10 9.9
2015-Mar-02 07:33N 38°26' W 009°46'1010.0
2015-Mar-02 06:31N 38°16' W 009°43'1310.0
2015-Mar-02 05:13N 38°03' W 009°39'16 9.9
2015-Mar-02 03:33N 37°47' W 009°35'42 9.8
2015-Mar-01 23:18N 37°06' W 009°23'196 9.4
2015-Mar-01 02:31N 35°58' W 005°34'8 8.1
2015-Mar-01 01:29N 35°60' W 005°24'7 7.7
2015-Mar-01 00:33N 35°54' W 005°19'0 0.4
2015-Feb-28 23:32N 35°54' W 005°19'0 0.0
2015-Feb-28 22:32N 35°54' W 005°19'0 0.0
2015-Feb-28 21:32N 35°54' W 005°19'0 0.0
2015-Feb-28 20:34N 35°54' W 005°19'3 2.8
2015-Feb-28 19:33N 35°56' W 005°17'  
Track history (hours):
 
Tides and Currents Weather Stations Pressure Air Temp Water Temp Dewpoint Dewpoint Depression Visibility Wind Speed Wind Dir Waves Ship Positions

MV Moseldijk

Last reported at 2015-Mar-02 11:06 UTC. Time now 2015-Mar-04 08:33 UTC.
Position N 39°01' W 009°51'.

Length 90 m; draft 6.4 m.

Type: Cargo ship. MMSI: 246644000.

Date/timePositionNaut miles runAvg speedWind from/ knotsBaromVisibWave heightAir tempDewpointWater temp
2015-Mar-02 11:06N 39°01' W 009°51'1610.1
2015-Mar-02 09:32N 38°45' W 009°51'1010.0
2015-Mar-02 08:33N 38°36' W 009°48'10 9.9
2015-Mar-02 07:33N 38°26' W 009°46'1010.0
2015-Mar-02 06:31N 38°16' W 009°43'1310.0
2015-Mar-02 05:13N 38°03' W 009°39'16 9.9
2015-Mar-02 03:33N 37°47' W 009°35'42 9.8
2015-Mar-01 23:18N 37°06' W 009°23'196 9.4
2015-Mar-01 02:31N 35°58' W 005°34'8 8.1
2015-Mar-01 01:29N 35°60' W 005°24'7 7.7
2015-Mar-01 00:33N 35°54' W 005°19'0 0.4
2015-Feb-28 23:32N 35°54' W 005°19'0 0.0
2015-Feb-28 22:32N 35°54' W 005°19'0 0.0
2015-Feb-28 21:32N 35°54' W 005°19'0 0.0
2015-Feb-28 20:34N 35°54' W 005°19'3 2.8
2015-Feb-28 19:33N 35°56' W 005°17'  

Dump ship's entire track history